createdAt,value
2018-06-30T00:02:19.000Z,15.85
2018-06-30T00:04:50.098Z,15.35
2018-06-30T00:07:17.197Z,15.69
2018-06-30T00:09:44.252Z,15.71
2018-06-30T00:12:11.567Z,15.69
2018-06-30T00:14:38.630Z,15.58
2018-06-30T00:17:05.667Z,15.56
2018-06-30T00:19:32.682Z,15.74
2018-06-30T00:21:59.821Z,15.77
2018-06-30T00:24:26.886Z,15.69
2018-06-30T00:26:59.783Z,15.60
2018-06-30T00:29:26.819Z,15.46
2018-06-30T00:31:53.821Z,15.46
2018-06-30T00:34:20.837Z,15.52
2018-06-30T00:36:47.927Z,15.56
2018-06-30T00:39:14.948Z,15.48
2018-06-30T00:41:41.985Z,15.46
2018-06-30T00:44:09.132Z,15.35
2018-06-30T00:46:36.167Z,15.50
2018-06-30T00:49:03.337Z,15.49
2018-06-30T00:51:30.368Z,15.48
2018-06-30T00:53:57.464Z,15.45
2018-06-30T00:56:24.508Z,15.32
2018-06-30T00:58:52.057Z,15.12
2018-06-30T01:01:19.128Z,15.25
2018-06-30T01:03:46.162Z,15.32
2018-06-30T01:06:13.189Z,15.21
2018-06-30T01:08:40.202Z,15.06
2018-06-30T01:11:07.325Z,15.13
2018-06-30T01:13:34.350Z,15.21
2018-06-30T01:16:01.532Z,15.18
2018-06-30T01:18:28.638Z,15.06
2018-06-30T01:20:55.651Z,15.16
2018-06-30T01:23:22.766Z,15.16
2018-06-30T01:25:49.863Z,15.31
2018-06-30T01:28:17.040Z,15.25
2018-06-30T01:30:44.139Z,15.21
2018-06-30T01:33:11.166Z,15.11
2018-06-30T01:35:38.590Z,15.11
2018-06-30T01:38:05.594Z,15.16
2018-06-30T01:40:32.678Z,15.29
2018-06-30T01:43:00.093Z,15.20
2018-06-30T01:45:27.189Z,15.24
2018-06-30T01:48:04.942Z,15.22
2018-06-30T01:50:31.974Z,15.33
2018-06-30T01:52:59.060Z,15.13
2018-06-30T01:55:26.370Z,14.97
2018-06-30T01:57:53.453Z,15.07
2018-06-30T02:00:20.848Z,15.03
2018-06-30T02:02:48.149Z,15.01
2018-06-30T02:05:15.226Z,14.94
2018-06-30T02:07:42.335Z,15.05
2018-06-30T02:10:09.544Z,14.99
2018-06-30T02:12:36.547Z,14.99
2018-06-30T02:15:03.965Z,14.89
2018-06-30T02:17:30.998Z,14.70
2018-06-30T02:19:58.125Z,14.70
2018-06-30T02:22:25.138Z,14.73
2018-06-30T02:24:52.178Z,14.61
2018-06-30T02:27:19.326Z,14.66
2018-06-30T02:29:46.336Z,14.45
2018-06-30T02:32:13.729Z,14.29
2018-06-30T02:34:40.748Z,14.13
2018-06-30T02:37:07.771Z,14.31
2018-06-30T02:39:34.801Z,14.24
2018-06-30T02:42:01.917Z,14.26
2018-06-30T02:44:29.013Z,14.32
2018-06-30T02:46:56.017Z,14.07
2018-06-30T02:49:23.066Z,13.89
2018-06-30T02:51:50.171Z,13.95
2018-06-30T02:54:17.255Z,13.95
2018-06-30T02:56:44.497Z,14.01
2018-06-30T02:59:11.583Z,13.86
2018-06-30T03:01:38.601Z,13.83
2018-06-30T03:04:05.664Z,13.87
2018-06-30T03:06:32.673Z,13.79
2018-06-30T03:08:59.665Z,13.74
2018-06-30T03:11:26.674Z,13.91
2018-06-30T03:13:53.759Z,13.68
2018-06-30T03:16:20.875Z,13.77
2018-06-30T03:18:48.437Z,13.71
2018-06-30T03:21:15.567Z,13.87
2018-06-30T03:23:42.695Z,14.03
2018-06-30T03:26:10.193Z,13.97
2018-06-30T03:28:37.192Z,13.93
2018-06-30T03:31:04.308Z,13.94
2018-06-30T03:33:31.370Z,14.11
2018-06-30T03:35:58.409Z,14.25
2018-06-30T03:38:25.443Z,14.22
2018-06-30T03:40:52.469Z,14.22
2018-06-30T03:43:19.632Z,14.22
2018-06-30T03:45:46.620Z,14.15
2018-06-30T03:48:13.798Z,13.86
2018-06-30T03:50:40.944Z,13.77
2018-06-30T03:53:07.934Z,13.69
2018-06-30T03:55:34.956Z,13.71
2018-06-30T03:58:01.977Z,13.66
2018-06-30T04:00:29.058Z,13.64
2018-06-30T04:02:56.235Z,13.77
2018-06-30T04:05:23.444Z,13.74
2018-06-30T04:07:50.808Z,13.73
2018-06-30T04:10:18.029Z,13.75
2018-06-30T04:12:45.089Z,13.92
2018-06-30T04:15:12.125Z,14.01
2018-06-30T04:17:39.172Z,14.05
2018-06-30T04:20:06.222Z,14.07
2018-06-30T04:22:33.285Z,14.03
2018-06-30T04:25:00.321Z,14.12
2018-06-30T04:27:27.370Z,14.21
2018-06-30T04:29:54.356Z,14.15
2018-06-30T04:32:21.405Z,14.23
2018-06-30T04:34:48.430Z,14.27
2018-06-30T04:37:15.460Z,14.34
2018-06-30T04:39:42.502Z,14.57
2018-06-30T04:42:09.514Z,14.64
2018-06-30T04:44:36.533Z,14.63
2018-06-30T04:47:03.684Z,14.73
2018-06-30T04:49:30.714Z,14.70
2018-06-30T04:51:57.717Z,14.70
2018-06-30T04:54:24.764Z,14.92
2018-06-30T04:59:25.969Z,14.86
2018-06-30T05:01:53.076Z,15.05
2018-06-30T05:04:20.677Z,15.12
2018-06-30T05:06:47.802Z,15.09
2018-06-30T05:09:14.825Z,15.03
2018-06-30T05:11:41.846Z,15.21
2018-06-30T05:14:08.842Z,15.28
2018-06-30T05:16:35.876Z,15.28
2018-06-30T05:19:02.961Z,15.25
2018-06-30T05:21:29.988Z,15.27
2018-06-30T05:23:57.008Z,15.32
2018-06-30T05:26:24.036Z,15.48
2018-06-30T05:28:51.070Z,15.59
2018-06-30T05:31:18.417Z,15.73
2018-06-30T05:33:45.538Z,15.71
2018-06-30T05:36:12.560Z,15.66
2018-06-30T05:38:40.440Z,15.82
2018-06-30T05:41:07.718Z,15.88
2018-06-30T05:43:34.697Z,16.00
2018-06-30T05:46:01.744Z,16.18
2018-06-30T05:48:28.799Z,16.21
2018-06-30T05:50:55.842Z,16.24
2018-06-30T05:53:22.894Z,16.32
2018-06-30T05:55:49.941Z,16.39
2018-06-30T05:58:16.984Z,16.34
2018-06-30T06:00:44.245Z,16.48
2018-06-30T06:03:11.572Z,16.57
2018-06-30T06:05:38.603Z,16.66
2018-06-30T06:08:05.645Z,16.70
2018-06-30T06:10:32.666Z,16.74
2018-06-30T06:12:59.746Z,16.78
2018-06-30T06:15:27.242Z,16.86
2018-06-30T06:17:54.233Z,16.95
2018-06-30T06:20:21.273Z,17.03
2018-06-30T06:22:48.333Z,17.13
2018-06-30T06:25:15.374Z,17.14
2018-06-30T06:27:42.392Z,17.18
2018-06-30T06:30:09.681Z,17.32
2018-06-30T06:32:37.108Z,17.39
2018-06-30T06:35:04.285Z,17.36
2018-06-30T06:37:31.309Z,17.42
2018-06-30T06:39:58.343Z,17.47
2018-06-30T06:42:25.401Z,17.57
2018-06-30T06:44:52.430Z,17.64
2018-06-30T06:47:19.450Z,17.62
2018-06-30T06:49:46.489Z,17.63
2018-06-30T06:52:13.537Z,17.72
2018-06-30T06:54:40.588Z,17.80
2018-06-30T06:57:07.634Z,17.96
2018-06-30T06:59:34.658Z,18.00
2018-06-30T07:02:01.721Z,18.10
2018-06-30T07:04:29.265Z,18.11
2018-06-30T07:06:56.428Z,18.20
2018-06-30T07:09:23.448Z,18.31
2018-06-30T07:11:51.035Z,18.37
2018-06-30T07:14:18.227Z,18.51
2018-06-30T07:16:45.329Z,18.44
2018-06-30T07:19:12.465Z,18.45
2018-06-30T07:21:39.454Z,18.53
2018-06-30T07:24:06.690Z,18.64
2018-06-30T07:26:34.266Z,18.71
2018-06-30T07:29:01.269Z,18.78
2018-06-30T07:31:28.744Z,18.86
2018-06-30T07:33:56.240Z,18.98
2018-06-30T07:36:23.594Z,18.96
2018-06-30T07:38:51.444Z,18.97
2018-06-30T07:41:18.544Z,19.00
2018-06-30T07:43:45.763Z,18.98
2018-06-30T07:46:13.060Z,19.03
2018-06-30T07:48:40.209Z,19.04
2018-06-30T07:51:07.961Z,18.94
2018-06-30T07:53:35.022Z,19.12
2018-06-30T07:56:02.069Z,19.27
2018-06-30T07:58:29.165Z,19.35
2018-06-30T08:00:56.160Z,19.52
2018-06-30T08:03:23.232Z,19.61
2018-06-30T08:05:50.745Z,19.68
2018-06-30T08:08:17.818Z,19.65
2018-06-30T08:10:45.549Z,19.71
2018-06-30T08:13:12.618Z,19.85
2018-06-30T08:15:39.955Z,19.87
2018-06-30T08:18:07.428Z,19.86
2018-06-30T08:20:34.912Z,19.75
2018-06-30T08:23:03.283Z,19.49
2018-06-30T08:25:30.356Z,19.94
2018-06-30T08:27:57.550Z,20.06
2018-06-30T08:30:24.758Z,20.10
2018-06-30T08:32:51.941Z,20.21
2018-06-30T08:35:19.280Z,20.29
2018-06-30T08:37:46.294Z,20.37
2018-06-30T08:40:13.325Z,20.44
2018-06-30T08:42:40.660Z,20.43
2018-06-30T08:45:07.785Z,20.47
2018-06-30T08:47:35.115Z,20.55
2018-06-30T08:50:02.462Z,20.56
2018-06-30T08:52:29.610Z,20.53
2018-06-30T08:54:56.974Z,20.54
2018-06-30T08:57:24.407Z,20.67
2018-06-30T08:59:51.443Z,20.87
2018-06-30T09:02:18.573Z,20.88
2018-06-30T09:04:45.605Z,20.99
2018-06-30T09:07:12.712Z,20.88
2018-06-30T09:09:40.112Z,20.96
2018-06-30T09:12:07.142Z,20.97
2018-06-30T09:14:34.433Z,21.06
2018-06-30T09:17:01.437Z,21.07
2018-06-30T09:19:28.473Z,21.16
2018-06-30T09:21:55.501Z,21.18
2018-06-30T09:24:22.499Z,21.14
2018-06-30T09:26:49.500Z,21.10
2018-06-30T09:29:16.596Z,21.26
2018-06-30T09:31:43.605Z,21.51
2018-06-30T09:34:10.819Z,21.53
2018-06-30T09:36:37.830Z,21.58
2018-06-30T09:39:07.074Z,21.55
2018-06-30T09:41:34.174Z,21.60
2018-06-30T09:44:01.205Z,21.69
2018-06-30T09:46:28.207Z,21.61
2018-06-30T09:48:55.329Z,21.72
2018-06-30T09:51:22.352Z,21.92
2018-06-30T09:53:49.373Z,21.65
2018-06-30T09:56:16.529Z,21.93
2018-06-30T09:58:43.632Z,22.21
2018-06-30T10:01:10.646Z,22.07
2018-06-30T10:03:38.344Z,22.22
2018-06-30T10:06:05.577Z,22.34
2018-06-30T10:08:32.584Z,22.36
2018-06-30T10:10:59.646Z,22.39
2018-06-30T10:13:26.690Z,22.26
2018-06-30T10:15:53.913Z,22.03
2018-06-30T10:18:20.933Z,22.14
2018-06-30T10:20:48.240Z,22.46
2018-06-30T10:23:15.225Z,22.65
2018-06-30T10:25:42.273Z,22.82
2018-06-30T10:28:09.737Z,22.84
2018-06-30T10:30:37.502Z,22.26
2018-06-30T10:33:04.511Z,21.73
2018-06-30T10:35:31.540Z,21.68
2018-06-30T10:37:58.601Z,21.69
2018-06-30T10:40:25.673Z,21.80
2018-06-30T10:42:52.683Z,22.21
2018-06-30T10:45:19.700Z,22.70
2018-06-30T10:47:46.742Z,23.10
2018-06-30T10:50:13.750Z,23.24
2018-06-30T10:52:40.777Z,23.51
2018-06-30T10:55:07.847Z,23.70
2018-06-30T10:57:34.857Z,23.49
2018-06-30T11:00:02.024Z,23.41
2018-06-30T11:02:29.078Z,23.02
2018-06-30T11:04:56.133Z,22.81
2018-06-30T11:07:23.404Z,22.62
2018-06-30T11:09:50.451Z,22.48
2018-06-30T11:12:17.569Z,22.22
2018-06-30T11:14:44.589Z,22.18
2018-06-30T11:17:11.797Z,22.42
2018-06-30T11:19:39.512Z,22.54
2018-06-30T11:22:06.577Z,23.00
2018-06-30T11:24:33.693Z,23.19
2018-06-30T11:27:00.735Z,23.29
2018-06-30T11:29:27.947Z,22.82
2018-06-30T11:31:54.964Z,22.69
2018-06-30T11:34:22.030Z,22.44
2018-06-30T11:36:49.138Z,22.49
2018-06-30T11:39:16.180Z,22.29
2018-06-30T11:41:43.403Z,22.54
2018-06-30T11:44:10.856Z,22.59
2018-06-30T11:46:37.890Z,22.90
2018-06-30T11:49:05.275Z,22.86
2018-06-30T11:51:32.338Z,22.93
2018-06-30T11:53:59.370Z,23.21
2018-06-30T11:56:26.483Z,23.50
2018-06-30T11:58:53.549Z,23.52
2018-06-30T12:01:20.589Z,23.67
2018-06-30T12:03:47.621Z,23.23
2018-06-30T12:06:14.725Z,23.49
2018-06-30T12:08:41.744Z,23.91
2018-06-30T12:11:08.891Z,24.13
2018-06-30T12:13:35.971Z,24.41
2018-06-30T12:16:03.141Z,24.35
2018-06-30T12:18:30.191Z,24.34
2018-06-30T12:20:57.220Z,24.46
2018-06-30T12:23:24.333Z,24.57
2018-06-30T12:25:51.371Z,24.11
2018-06-30T12:28:18.399Z,24.48
2018-06-30T12:30:45.409Z,25.09
2018-06-30T12:33:12.484Z,25.29
2018-06-30T12:35:39.479Z,24.81
2018-06-30T12:38:06.508Z,25.31
2018-06-30T12:40:33.613Z,25.56
2018-06-30T12:43:00.641Z,25.95
2018-06-30T12:45:28.273Z,25.90
2018-06-30T12:47:55.287Z,25.83
2018-06-30T12:50:22.313Z,25.84
2018-06-30T12:52:49.901Z,25.93
2018-06-30T12:55:16.931Z,25.53
2018-06-30T12:57:43.983Z,25.76
2018-06-30T13:00:11.021Z,26.22
2018-06-30T13:02:38.016Z,26.77
2018-06-30T13:05:05.135Z,26.80
2018-06-30T13:07:32.217Z,26.57
2018-06-30T13:09:59.221Z,26.16
2018-06-30T13:12:26.491Z,25.40
2018-06-30T13:14:53.526Z,24.50
2018-06-30T13:17:20.572Z,24.46
2018-06-30T13:19:47.763Z,24.85
2018-06-30T13:22:14.811Z,25.76
2018-06-30T13:24:42.192Z,26.13
2018-06-30T13:27:09.231Z,26.19
2018-06-30T13:29:36.416Z,26.89
2018-06-30T13:32:03.585Z,27.64
2018-06-30T13:34:30.764Z,26.90
2018-06-30T13:36:57.725Z,26.99
2018-06-30T13:39:24.742Z,26.43
2018-06-30T13:41:51.885Z,25.87
2018-06-30T13:44:18.905Z,25.37
2018-06-30T13:46:45.956Z,24.91
2018-06-30T13:49:12.981Z,24.77
2018-06-30T13:51:40.008Z,25.21
2018-06-30T13:54:07.404Z,25.64
2018-06-30T13:56:34.449Z,25.96
2018-06-30T13:59:01.500Z,26.30
2018-06-30T14:01:28.517Z,26.36
2018-06-30T14:03:55.633Z,26.92
2018-06-30T14:06:22.654Z,27.64
2018-06-30T14:08:49.696Z,27.80
2018-06-30T14:11:16.812Z,27.30
2018-06-30T14:13:43.919Z,27.45
2018-06-30T14:16:10.991Z,28.02
2018-06-30T14:18:38.187Z,27.37
2018-06-30T14:21:05.193Z,27.22
2018-06-30T14:23:32.283Z,27.38
2018-06-30T14:25:59.298Z,27.83
2018-06-30T14:28:26.606Z,28.05
2018-06-30T14:30:53.621Z,27.57
2018-06-30T14:33:20.661Z,26.71
2018-06-30T14:35:47.697Z,26.88
2018-06-30T14:38:14.741Z,26.14
2018-06-30T14:40:41.904Z,26.06
2018-06-30T14:43:08.942Z,26.05
2018-06-30T14:45:35.957Z,25.90
2018-06-30T14:48:03.079Z,26.47
2018-06-30T14:50:30.157Z,26.53
2018-06-30T14:52:57.173Z,27.09
2018-06-30T14:55:24.199Z,27.42
2018-06-30T14:57:51.216Z,26.84
2018-06-30T15:00:18.330Z,26.61
2018-06-30T15:02:45.457Z,26.23
2018-06-30T15:05:12.493Z,26.60
2018-06-30T15:07:39.548Z,26.22
2018-06-30T15:10:07.218Z,26.12
2018-06-30T15:12:34.376Z,25.79
2018-06-30T15:15:01.438Z,25.60
2018-06-30T15:17:28.453Z,25.36
2018-06-30T15:19:55.511Z,25.26
2018-06-30T15:22:22.558Z,25.31
2018-06-30T15:24:49.598Z,25.42
2018-06-30T15:27:16.673Z,25.39
2018-06-30T15:29:43.700Z,25.68
2018-06-30T15:32:10.803Z,25.80
2018-06-30T15:34:37.914Z,25.44
2018-06-30T15:37:04.973Z,25.53
2018-06-30T15:39:32.066Z,25.51
2018-06-30T15:41:59.340Z,25.44
2018-06-30T15:44:26.395Z,24.72
2018-06-30T15:46:53.437Z,24.80
2018-06-30T15:49:20.458Z,24.87
2018-06-30T15:51:47.537Z,24.95
2018-06-30T15:54:14.581Z,25.20
2018-06-30T15:56:41.595Z,25.22
2018-06-30T15:59:08.644Z,25.14
2018-06-30T16:01:35.745Z,25.37
2018-06-30T16:06:42.177Z,25.29
2018-06-30T16:09:10.472Z,25.43
2018-06-30T16:11:44.464Z,25.85
2018-06-30T16:14:11.515Z,25.51
2018-06-30T16:16:39.098Z,25.71
2018-06-30T16:19:06.313Z,25.26
2018-06-30T16:21:33.340Z,25.22
2018-06-30T16:29:12.973Z,25.31
2018-06-30T16:31:40.023Z,24.77
2018-06-30T16:34:07.043Z,24.97
2018-06-30T16:36:34.076Z,24.82
2018-06-30T16:39:01.129Z,24.98
2018-06-30T16:41:28.157Z,24.74
2018-06-30T16:43:55.375Z,24.45
2018-06-30T16:46:23.997Z,24.25
2018-06-30T16:48:51.096Z,24.32
2018-06-30T16:51:18.116Z,24.14
2018-06-30T16:53:45.711Z,23.97
2018-06-30T16:56:12.737Z,23.88
2018-06-30T16:58:39.780Z,23.77
2018-06-30T17:01:06.809Z,23.55
2018-06-30T17:03:34.227Z,23.49
2018-06-30T17:06:01.271Z,23.36
2018-06-30T17:08:28.583Z,23.32
2018-06-30T17:10:56.837Z,23.37
2018-06-30T17:17:30.614Z,22.99
2018-06-30T17:19:57.675Z,22.84
2018-06-30T17:22:24.734Z,22.83
2018-06-30T17:24:51.894Z,22.82
2018-06-30T17:27:18.965Z,22.80
2018-06-30T17:29:46.005Z,22.77
2018-06-30T17:32:13.026Z,22.71
2018-06-30T17:34:40.061Z,22.69
2018-06-30T17:37:07.086Z,22.55
2018-06-30T17:39:34.155Z,22.57
2018-06-30T17:42:01.327Z,22.42
2018-06-30T17:44:28.405Z,22.27
2018-06-30T17:46:55.476Z,22.31
2018-06-30T17:49:22.578Z,22.23
2018-06-30T17:51:50.653Z,22.20
2018-06-30T17:54:17.757Z,22.21
2018-06-30T17:56:44.805Z,22.12
2018-06-30T17:59:11.876Z,22.10
2018-06-30T18:01:39.004Z,22.03
2018-06-30T18:04:06.468Z,21.99
2018-06-30T18:06:33.685Z,21.92
2018-06-30T18:09:00.741Z,21.79
2018-06-30T18:11:28.212Z,21.85
2018-06-30T18:13:55.246Z,21.78
2018-06-30T18:16:22.305Z,21.74
2018-06-30T18:18:49.389Z,21.66
2018-06-30T18:21:16.746Z,21.58
2018-06-30T18:23:43.878Z,21.58
2018-06-30T18:26:10.886Z,21.46
2018-06-30T18:28:37.913Z,21.47
2018-06-30T18:31:04.928Z,21.49
2018-06-30T18:33:33.182Z,21.39
2018-06-30T18:36:00.672Z,21.34
2018-06-30T18:38:27.725Z,21.23
2018-06-30T18:40:55.081Z,21.15
2018-06-30T18:43:22.146Z,21.09
2018-06-30T18:45:49.155Z,21.12
2018-06-30T18:48:16.507Z,21.12
2018-06-30T18:50:43.546Z,21.03
2018-06-30T18:53:10.958Z,20.90
2018-06-30T18:55:38.045Z,20.85
2018-06-30T18:58:06.188Z,20.78
2018-06-30T19:00:33.234Z,20.79
2018-06-30T19:03:00.509Z,20.77
2018-06-30T19:05:27.892Z,20.75
2018-06-30T19:07:55.133Z,20.73
2018-06-30T19:10:22.425Z,20.63
2018-06-30T19:12:49.602Z,20.65
2018-06-30T19:15:17.015Z,20.58
2018-06-30T19:17:44.027Z,20.47
2018-06-30T19:20:11.188Z,20.41
2018-06-30T19:22:38.596Z,20.33
2018-06-30T19:25:05.704Z,20.35
2018-06-30T19:27:32.745Z,20.24
2018-06-30T19:29:59.738Z,20.16
2018-06-30T19:32:27.154Z,20.12
2018-06-30T19:34:54.419Z,20.12
2018-06-30T19:37:21.454Z,20.06
2018-06-30T19:39:48.594Z,19.98
2018-06-30T19:43:04.195Z,19.89
2018-06-30T19:45:31.283Z,19.84
2018-06-30T19:47:58.277Z,19.76
2018-06-30T19:50:25.761Z,19.74
2018-06-30T19:52:52.798Z,19.67
2018-06-30T19:55:19.819Z,19.62
2018-06-30T19:57:46.825Z,19.52
2018-06-30T20:00:14.359Z,19.49
2018-06-30T20:02:41.390Z,19.39
2018-06-30T20:05:08.596Z,19.35
2018-06-30T20:07:41.352Z,19.36
2018-06-30T20:10:08.414Z,19.31
2018-06-30T20:12:35.729Z,19.29
2018-06-30T20:15:02.834Z,19.19
2018-06-30T20:17:30.258Z,19.18
2018-06-30T20:19:57.327Z,19.15
2018-06-30T20:22:24.440Z,19.08
2018-06-30T20:24:53.389Z,18.92
2018-06-30T20:27:20.689Z,18.89
2018-06-30T20:29:47.822Z,18.58
2018-06-30T20:32:14.860Z,18.57
2018-06-30T20:34:42.293Z,18.61
2018-06-30T20:37:09.350Z,18.41
2018-06-30T20:39:36.458Z,18.38
2018-06-30T20:42:03.469Z,18.36
2018-06-30T20:44:30.690Z,18.34
2018-06-30T20:46:57.769Z,18.45
2018-06-30T20:49:25.079Z,18.41
2018-06-30T20:51:52.116Z,18.49
2018-06-30T20:57:22.110Z,18.25
2018-06-30T20:59:49.497Z,18.32
2018-06-30T21:02:16.538Z,18.22
2018-06-30T21:04:43.981Z,18.23
2018-06-30T21:07:11.542Z,18.23
2018-06-30T21:09:38.565Z,18.07
2018-06-30T21:12:05.653Z,17.92
2018-06-30T21:14:32.741Z,17.91
2018-06-30T21:17:00.102Z,17.80
2018-06-30T21:22:01.891Z,17.52
2018-06-30T21:24:28.964Z,17.46
2018-06-30T21:26:56.003Z,17.55
2018-06-30T21:29:23.317Z,17.42
2018-06-30T21:31:50.682Z,17.42
2018-06-30T21:34:18.003Z,17.25
2018-06-30T21:36:45.077Z,17.21
2018-06-30T21:39:12.886Z,17.22
2018-06-30T21:41:40.653Z,17.30
2018-06-30T21:44:08.091Z,17.44
2018-06-30T21:46:35.346Z,17.47
2018-06-30T21:49:02.426Z,17.38
2018-06-30T21:51:29.676Z,17.26
2018-06-30T21:53:57.086Z,17.31
2018-06-30T21:56:24.211Z,17.32
2018-06-30T21:58:51.892Z,17.19
2018-06-30T22:01:24.488Z,17.01
2018-06-30T22:03:52.567Z,17.20
2018-06-30T22:06:19.746Z,17.13
2018-06-30T22:08:47.074Z,17.18
2018-06-30T22:11:15.085Z,17.01
2018-06-30T22:13:42.421Z,17.10
2018-06-30T22:16:09.517Z,17.26
2018-06-30T22:18:36.844Z,17.22
2018-06-30T22:21:03.951Z,17.06
2018-06-30T22:23:31.001Z,16.92
2018-06-30T22:25:58.202Z,16.90
2018-06-30T22:28:25.643Z,16.90
2018-06-30T22:30:52.680Z,16.91
2018-06-30T22:33:19.699Z,16.79
2018-06-30T22:35:47.016Z,16.67
2018-06-30T22:38:14.444Z,16.58
2018-06-30T22:40:41.684Z,16.59
2018-06-30T22:43:08.746Z,16.57
2018-06-30T22:45:35.768Z,16.55
2018-06-30T22:48:03.181Z,16.61
2018-06-30T22:50:30.213Z,16.62
2018-06-30T22:52:57.256Z,16.51
2018-06-30T22:55:24.342Z,16.55
2018-06-30T22:57:51.356Z,16.40
2018-06-30T23:00:18.692Z,16.48
2018-06-30T23:02:45.714Z,16.45
2018-06-30T23:05:12.781Z,16.62
2018-06-30T23:07:39.793Z,16.45
2018-06-30T23:10:06.885Z,16.22
2018-06-30T23:12:33.972Z,16.16
2018-06-30T23:15:00.969Z,15.99
2018-06-30T23:17:27.998Z,16.05
2018-06-30T23:19:55.409Z,16.02
2018-06-30T23:22:40.390Z,16.01
2018-06-30T23:25:07.418Z,15.89
2018-06-30T23:27:34.453Z,16.04
2018-06-30T23:30:01.531Z,15.97
2018-06-30T23:32:28.561Z,16.01
2018-06-30T23:34:55.653Z,15.91
2018-06-30T23:37:22.937Z,15.95
2018-06-30T23:39:49.986Z,15.89
2018-06-30T23:42:16.995Z,15.89
2018-06-30T23:44:44.017Z,15.91
2018-06-30T23:47:11.020Z,15.83
2018-06-30T23:49:38.042Z,15.72
2018-06-30T23:52:05.173Z,15.64
2018-06-30T23:54:32.169Z,15.54
2018-06-30T23:56:59.182Z,15.47
2018-06-30T23:59:26.178Z,15.47
